Tuesday, May 24, 2016
07:57 UTC
  |  Log In   |  Register Free
Airport Search:

Owosso Community Airport
(KRNP)

Owosso Community Airport Diagram
No Airport Diagram Available

FAA data valid effective Mar 31 2016 - May 26 2016 (unless otherwise noted).

 
 
 
 
 
 
 
 
 
 
 
 
 
 
Current Aviation Weather for KRNP

Weather Summary


The most recent METAR observation for RNP was updated at: 13:15 UTC
METAR for KRNP is not available. Closest METAR is for KFNT
KRNP  (most recent observation was updatred at 24:07 UTC)
240735Z AUTO 00000KT 10SM CLR 11/04 A2999 RMK AO2 T01050035

KFNT  (17.4 nm NW)   (most recent observation was updated at 24:07 UTC)
240753Z AUTO 00000KT 10SM CLR 09/06 A2999 RMK AO2 SLP152 T00940056

KOZW  (22.9 nm NW)   (most recent observation was updated at 24:07 UTC)
240735Z AUTO 13004KT 10SM CLR 10/06 A2999 RMK AO2 T01000055

TAF for KRNP is not available.
KFNT  (17.4 nm NW)   (most recent observation was updatred at 24:05 UTC)
240525Z 2406/2506 20005KT P6SM SKC FM241800 24010KT P6SM SCT050 SCT250 FM250000 21005KT P6SM BKN200


KLAN  (23.5 nm NE)   (most recent observation was updatred at 24:05 UTC)
240540Z 2406/2506 18003KT P6SM SCT250 FM241600 22010KT P6SM SCT250 FM242300 21005KT P6SM BKN080


KMBS  (32.5 nm SW)   (most recent observation was updatred at 24:05 UTC)
240525Z 2406/2506 20006KT P6SM SKC FM241800 24012KT P6SM SCT050 SCT250 FM250000 22006KT P6SM BKN200
GlobalAir.com is loading additional information.
 Current Weather at RNP
54.0 F° (12.0 C°)

Southeast winds at 3.5 mph
Pressure:
29.98 in
Humidity:
58%
Wind:
Southeast at 3.5 mph
Dew Point:
39.0 F° (3.9 C°)
Visibility:
10.00 mi
RNP NOAA Radar




Find All Airport Services Find A Hotel Find A Rental Car Find A Golf Course Find A Restaurant $100 Hamburger



Airport Weather Forecast for KRNP

Translated METAR for KRNP (0735 UTC)
METAR:
KRNP 240735Z AUTO 00000KT 10SM CLR 11/04 A2999 RMK AO2 T01050035
Conditions at:
KRNP (Owosso Community, MI) observed 0735 UTC 24 May 2016
Temperature:
11°C (51.8°F)
Dewpoint:
4°C (39.2°F) [RH = 62]
Pressure:
29.99 inches Hg (1015.6 mb)
Winds:
from the N (000 degrees) at 0 mph (0 knots: 0 m/s)
Visibility:
10 mile(s)
Ceiling:
at least 12,000 feet AGL
Clouds:
Clear below 12,000 feet AGL
Remarks:
site is un-manned
site is automated and HAS a precipitation sensor

Translated TAF for KFNT (Bishop Intl, MI) (0525 UTC)
TAF text:
KFNT 240525Z 2406/2506 20005KT P6SM SKC
Forecast period:
Tuesday May 24 2016 06:00 UTC - Wednesday May 25 2016 06:00 UTC
Forecast type:
FROM: standard forecast or significant change
Winds:
from the SSW (200 degrees) at 5.8 mph (5 knots: 2.6 m/s)
Visibility:
6 or more mile(s) (9.7+ km)
Ceiling:
at least 12,000 feet AGL
Clouds:
Clear Skies
Weather:
no significant weather observed at this time
TAF text:
FM241800 24010KT P6SM SCT050 SCT250
Forecast period:
Tuesday May 24 2016 18:00 UTC - Wednesday May 25 2016 00:00 UTC
Forecast type:
FROM: standard forecast or significant change
Winds:
from the WSW (240 degrees) at 11.5 mph (10 knots: 5.1 m/s)
Visibility:
6 or more mile(s) (9.7+ km)
Ceiling:
at least 12,000 feet AGL
Clouds:
Scattered Clouds at 5,000 feet AGL
Scattered Clouds at 25,000 feet AGL
Weather:
no significant weather observed at this time
TAF text:
FM250000 21005KT P6SM BKN200
Forecast period:
Wednesday May 25 2016 00:00 UTC - Wednesday May 25 2016 06:00 UTC
Forecast type:
FROM: standard forecast or significant change
Winds:
from the SSW (210 degrees) at 5.8 mph (5 knots: 2.6 m/s)
Visibility:
6 or more mile(s) (9.7+ km)
Ceiling:
20,000 feet AGL
Clouds:
Broken Cloud Cover at 20,000 feet AGL
Weather:
no significant weather observed at this time
FBO's on the Field
FBO Company Facility Photos Services Transportation Aviation Fuel Prices: Prices include tax
Catering Weather Repair Courtesy Rental Type 100LL JetA JetA+ MOGAS 8087
 
Owosso Community Airport

This FBO has not yet been rated
FS:Avfuel
Last Updated: May-23
Login to update fuel prices
SS:
Contact Owosso Community AirportMore FBO Information
 
Add another FBO Facility Photos Catering Weather Repair Courtesy Rental Type 100LL JetA JetA+ MOGAS 8087
Services Transportation Aviation Fuel Prices: Prices include tax


model-print
model-print
model-print
model-print